Sainte Genevieve, Missouri
Current Conditions -  °F | °C
As of 10:35 PM on Friday 24 Oct 2014 (Local Time) from KSAR Reporting Station
Clear Clear  
Wind Chill: 61°   Ceiling: Unl
Heat Index: 61°   Visibility: 10mi
Dew Point: 51°   Wind: 6mph
Humidity: 71%   Direction: 190°S
Pressure: 30.03"   Gusts: NA
Location:  37.98°N, 90.04°W
Report Text: KSAR 250335Z AUTO 19005KT 10SM CLR 16/11 A3003 RMK AO2 T01600108
Loading
Personal Weather Stations






























Interactive Weather Map New forecast layout! Learn more

10-Day Weather Forecast

Advertisements
Track Severe Weather on mobile